Riveredge, Ohio
Current Conditions -  °F | °C
As of 4:51 PM on Tuesday 25 Nov 2014 (Local Time) from KCLE Reporting Station
Overcast Overcast  
Wind Chill: 24°   Ceiling: 2200
Heat Index: 34°   Visibility: 10mi
Dew Point: 26°   Wind: 15mph
Humidity: 73%   Direction: 280°W
Pressure: 30.14"   Gusts: NA
Location:  41.4315°N, 81.8114°W
Report Text: KCLE 252151Z 28013KT 10SM BKN022 OVC029 01/M03 A3014 RMK AO2 SLP213 T00111033
Loading
Personal Weather Stations






























Interactive Weather Map New forecast layout! Learn more

10-Day Weather Forecast

Advertisements
Track Severe Weather on mobile